sensor_id;sensor_type;location;lat;lon;timestamp;pressure;altitude;pressure_sealevel;temperature;humidity
54600;BME280;40500;51.084;16.958;2023-05-24T00:01:09;100187.33;;;13.90;100.00
54600;BME280;40500;51.084;16.958;2023-05-24T00:03:40;100190.75;;;13.82;100.00
54600;BME280;40500;51.084;16.958;2023-05-24T00:06:11;100195.32;;;13.72;100.00
54600;BME280;40500;51.084;16.958;2023-05-24T00:08:41;100195.91;;;13.64;100.00
54600;BME280;40500;51.084;16.958;2023-05-24T00:11:12;100196.30;;;13.52;100.00
54600;BME280;40500;51.084;16.958;2023-05-24T00:13:42;100201.02;;;13.41;100.00
54600;BME280;40500;51.084;16.958;2023-05-24T00:16:13;100202.05;;;13.30;100.00
54600;BME280;40500;51.084;16.958;2023-05-24T00:18:43;100212.20;;;13.25;100.00
54600;BME280;40500;51.084;16.958;2023-05-24T00:21:16;100207.31;;;13.19;100.00
54600;BME280;40500;51.084;16.958;2023-05-24T00:23:46;100209.76;;;13.19;100.00
54600;BME280;40500;51.084;16.958;2023-05-24T00:26:19;100206.62;;;13.12;100.00
54600;BME280;40500;51.084;16.958;2023-05-24T00:28:54;100216.52;;;13.04;100.00
54600;BME280;40500;51.084;16.958;2023-05-24T00:31:24;100216.48;;;12.99;100.00
54600;BME280;40500;51.084;16.958;2023-05-24T00:33:55;100216.63;;;12.94;100.00
54600;BME280;40500;51.084;16.958;2023-05-24T00:36:25;100219.40;;;12.89;100.00
54600;BME280;40500;51.084;16.958;2023-05-24T00:38:56;100217.52;;;12.81;100.00
54600;BME280;40500;51.084;16.958;2023-05-24T00:41:26;100209.23;;;12.76;100.00
54600;BME280;40500;51.084;16.958;2023-05-24T00:43:56;100218.48;;;12.72;100.00
54600;BME280;40500;51.084;16.958;2023-05-24T00:46:29;100214.09;;;12.65;100.00
54600;BME280;40500;51.084;16.958;2023-05-24T00:49:00;100215.59;;;12.62;100.00
54600;BME280;40500;51.084;16.958;2023-05-24T00:51:31;100220.73;;;12.60;100.00
54600;BME280;40500;51.084;16.958;2023-05-24T00:54:02;100221.56;;;12.56;100.00
54600;BME280;40500;51.084;16.958;2023-05-24T00:56:33;100227.30;;;12.51;100.00
54600;BME280;40500;51.084;16.958;2023-05-24T00:59:04;100233.41;;;12.45;100.00
54600;BME280;40500;51.084;16.958;2023-05-24T01:01:34;100237.79;;;12.40;100.00
54600;BME280;40500;51.084;16.958;2023-05-24T01:04:05;100242.08;;;12.37;100.00
54600;BME280;40500;51.084;16.958;2023-05-24T01:06:46;100245.92;;;12.24;100.00
54600;BME280;40500;51.084;16.958;2023-05-24T01:09:27;100248.23;;;12.16;100.00
54600;BME280;40500;51.084;16.958;2023-05-24T01:12:14;100248.61;;;12.14;100.00
54600;BME280;40500;51.084;16.958;2023-05-24T01:14:55;100257.05;;;12.06;100.00
54600;BME280;40500;51.084;16.958;2023-05-24T01:17:31;100259.80;;;12.02;100.00
54600;BME280;40500;51.084;16.958;2023-05-24T01:20:07;100265.45;;;12.00;100.00
54600;BME280;40500;51.084;16.958;2023-05-24T01:23:05;100263.02;;;11.92;100.00
54600;BME280;40500;51.084;16.958;2023-05-24T01:25:57;100271.66;;;11.81;100.00
54600;BME280;40500;51.084;16.958;2023-05-24T01:28:30;100268.41;;;11.70;100.00
54600;BME280;40500;51.084;16.958;2023-05-24T01:31:01;100271.17;;;11.64;100.00
54600;BME280;40500;51.084;16.958;2023-05-24T01:33:33;100274.77;;;11.60;100.00
54600;BME280;40500;51.084;16.958;2023-05-24T01:36:04;100276.63;;;11.55;100.00
54600;BME280;40500;51.084;16.958;2023-05-24T01:38:35;100276.04;;;11.50;100.00
54600;BME280;40500;51.084;16.958;2023-05-24T01:41:17;100276.92;;;11.41;100.00
54600;BME280;40500;51.084;16.958;2023-05-24T01:43:58;100284.46;;;11.33;100.00
54600;BME280;40500;51.084;16.958;2023-05-24T01:46:35;100284.87;;;11.31;100.00
54600;BME280;40500;51.084;16.958;2023-05-24T01:49:20;100283.64;;;11.30;100.00
54600;BME280;40500;51.084;16.958;2023-05-24T01:51:56;100291.65;;;11.24;100.00
54600;BME280;40500;51.084;16.958;2023-05-24T01:54:32;100297.55;;;11.19;100.00
54600;BME280;40500;51.084;16.958;2023-05-24T01:57:06;100301.56;;;11.11;100.00
54600;BME280;40500;51.084;16.958;2023-05-24T01:59:40;100303.11;;;11.03;100.00
54600;BME280;40500;51.084;16.958;2023-05-24T02:02:11;100309.79;;;11.02;100.00
54600;BME280;40500;51.084;16.958;2023-05-24T02:04:42;100310.28;;;10.95;100.00
54600;BME280;40500;51.084;16.958;2023-05-24T02:07:12;100314.31;;;10.85;100.00
54600;BME280;40500;51.084;16.958;2023-05-24T02:09:43;100320.31;;;10.83;100.00
54600;BME280;40500;51.084;16.958;2023-05-24T02:12:14;100324.75;;;10.80;100.00
54600;BME280;40500;51.084;16.958;2023-05-24T02:14:45;100327.46;;;10.75;100.00
54600;BME280;40500;51.084;16.958;2023-05-24T02:17:19;100328.23;;;10.72;100.00
54600;BME280;40500;51.084;16.958;2023-05-24T02:19:50;100333.58;;;10.66;100.00
54600;BME280;40500;51.084;16.958;2023-05-24T02:22:21;100336.30;;;10.60;100.00
54600;BME280;40500;51.084;16.958;2023-05-24T02:24:53;100339.61;;;10.61;100.00
54600;BME280;40500;51.084;16.958;2023-05-24T02:27:24;100340.34;;;10.59;100.00
54600;BME280;40500;51.084;16.958;2023-05-24T02:29:54;100342.82;;;10.57;100.00
54600;BME280;40500;51.084;16.958;2023-05-24T02:32:25;100347.47;;;10.52;100.00
54600;BME280;40500;51.084;16.958;2023-05-24T02:34:56;100344.34;;;10.52;100.00
54600;BME280;40500;51.084;16.958;2023-05-24T02:37:27;100350.85;;;10.48;100.00
54600;BME280;40500;51.084;16.958;2023-05-24T02:39:58;100350.88;;;10.47;100.00
54600;BME280;40500;51.084;16.958;2023-05-24T02:42:28;100350.02;;;10.47;100.00
54600;BME280;40500;51.084;16.958;2023-05-24T02:44:59;100356.23;;;10.41;100.00
54600;BME280;40500;51.084;16.958;2023-05-24T02:47:29;100353.73;;;10.44;100.00
54600;BME280;40500;51.084;16.958;2023-05-24T02:50:00;100360.23;;;10.42;100.00
54600;BME280;40500;51.084;16.958;2023-05-24T02:52:30;100360.59;;;10.41;100.00
54600;BME280;40500;51.084;16.958;2023-05-24T02:55:01;100360.24;;;10.42;100.00
54600;BME280;40500;51.084;16.958;2023-05-24T02:57:32;100358.16;;;10.41;100.00
54600;BME280;40500;51.084;16.958;2023-05-24T03:00:04;100358.52;;;10.40;100.00
54600;BME280;40500;51.084;16.958;2023-05-24T03:02:37;100366.39;;;10.41;100.00
54600;BME280;40500;51.084;16.958;2023-05-24T03:05:09;100362.21;;;10.39;100.00
54600;BME280;40500;51.084;16.958;2023-05-24T03:07:40;100366.42;;;10.38;100.00
54600;BME280;40500;51.084;16.958;2023-05-24T03:10:11;100368.52;;;10.38;100.00
54600;BME280;40500;51.084;16.958;2023-05-24T03:12:44;100371.29;;;10.40;100.00
54600;BME280;40500;51.084;16.958;2023-05-24T03:15:15;100376.06;;;10.37;100.00
54600;BME280;40500;51.084;16.958;2023-05-24T03:17:47;100379.20;;;10.38;100.00
54600;BME280;40500;51.084;16.958;2023-05-24T03:20:18;100378.33;;;10.38;100.00
54600;BME280;40500;51.084;16.958;2023-05-24T03:22:49;100384.56;;;10.42;100.00
54600;BME280;40500;51.084;16.958;2023-05-24T03:25:20;100388.98;;;10.40;100.00
54600;BME280;40500;51.084;16.958;2023-05-24T03:27:50;100388.14;;;10.37;100.00
54600;BME280;40500;51.084;16.958;2023-05-24T03:30:22;100389.50;;;10.41;100.00
54600;BME280;40500;51.084;16.958;2023-05-24T03:32:55;100389.50;;;10.40;100.00
54600;BME280;40500;51.084;16.958;2023-05-24T03:35:26;100387.41;;;10.39;100.00
54600;BME280;40500;51.084;16.958;2023-05-24T03:37:57;100381.48;;;10.38;100.00
54600;BME280;40500;51.084;16.958;2023-05-24T03:40:30;100380.98;;;10.36;100.00
54600;BME280;40500;51.084;16.958;2023-05-24T03:43:14;100383.98;;;10.35;100.00
54600;BME280;40500;51.084;16.958;2023-05-24T03:46:07;100387.31;;;10.34;100.00
54600;BME280;40500;51.084;16.958;2023-05-24T03:48:37;100390.83;;;10.33;100.00
54600;BME280;40500;51.084;16.958;2023-05-24T03:51:08;100392.58;;;10.33;100.00
54600;BME280;40500;51.084;16.958;2023-05-24T03:53:38;100395.87;;;10.35;100.00
54600;BME280;40500;51.084;16.958;2023-05-24T03:56:09;100394.12;;;10.35;100.00
54600;BME280;40500;51.084;16.958;2023-05-24T03:58:39;100392.05;;;10.34;100.00
54600;BME280;40500;51.084;16.958;2023-05-24T04:01:10;100398.53;;;10.33;100.00
54600;BME280;40500;51.084;16.958;2023-05-24T04:04:01;100396.77;;;10.34;100.00
54600;BME280;40500;51.084;16.958;2023-05-24T04:06:31;100396.10;;;10.32;100.00
54600;BME280;40500;51.084;16.958;2023-05-24T04:09:05;100398.56;;;10.29;100.00
54600;BME280;40500;51.084;16.958;2023-05-24T04:11:36;100399.09;;;10.29;100.00
54600;BME280;40500;51.084;16.958;2023-05-24T04:14:06;100400.84;;;10.30;100.00
54600;BME280;40500;51.084;16.958;2023-05-24T04:16:36;100404.15;;;10.32;100.00
54600;BME280;40500;51.084;16.958;2023-05-24T04:19:08;100405.55;;;10.32;100.00
54600;BME280;40500;51.084;16.958;2023-05-24T04:21:39;100410.98;;;10.32;100.00
54600;BME280;40500;51.084;16.958;2023-05-24T04:24:10;100411.52;;;10.28;100.00
54600;BME280;40500;51.084;16.958;2023-05-24T04:26:41;100413.45;;;10.32;100.00
54600;BME280;40500;51.084;16.958;2023-05-24T04:29:11;100412.91;;;10.31;100.00
54600;BME280;40500;51.084;16.958;2023-05-24T04:31:42;100410.96;;;10.34;100.00
54600;BME280;40500;51.084;16.958;2023-05-24T04:34:13;100412.81;;;10.38;100.00
54600;BME280;40500;51.084;16.958;2023-05-24T04:36:44;100414.20;;;10.40;100.00
54600;BME280;40500;51.084;16.958;2023-05-24T04:39:15;100414.52;;;10.41;100.00
54600;BME280;40500;51.084;16.958;2023-05-24T04:41:47;100417.28;;;10.43;100.00
54600;BME280;40500;51.084;16.958;2023-05-24T04:44:19;100419.34;;;10.46;100.00
54600;BME280;40500;51.084;16.958;2023-05-24T04:46:52;100422.26;;;10.50;100.00
54600;BME280;40500;51.084;16.958;2023-05-24T04:49:22;100423.11;;;10.53;100.00
54600;BME280;40500;51.084;16.958;2023-05-24T04:51:53;100429.93;;;10.53;100.00
54600;BME280;40500;51.084;16.958;2023-05-24T04:54:24;100433.42;;;10.52;100.00
54600;BME280;40500;51.084;16.958;2023-05-24T04:56:54;100431.64;;;10.55;100.00
54600;BME280;40500;51.084;16.958;2023-05-24T04:59:25;100431.27;;;10.56;100.00
54600;BME280;40500;51.084;16.958;2023-05-24T05:01:56;100435.64;;;10.57;100.00
54600;BME280;40500;51.084;16.958;2023-05-24T05:04:26;100432.17;;;10.55;100.00
54600;BME280;40500;51.084;16.958;2023-05-24T05:06:57;100430.89;;;10.57;100.00
54600;BME280;40500;51.084;16.958;2023-05-24T05:09:27;100437.41;;;10.66;100.00
54600;BME280;40500;51.084;16.958;2023-05-24T05:11:58;100434.69;;;10.73;100.00
54600;BME280;40500;51.084;16.958;2023-05-24T05:14:29;100436.59;;;10.74;100.00
54600;BME280;40500;51.084;16.958;2023-05-24T05:16:59;100443.75;;;10.76;100.00
54600;BME280;40500;51.084;16.958;2023-05-24T05:19:30;100438.98;;;10.78;100.00
54600;BME280;40500;51.084;16.958;2023-05-24T05:22:01;100439.67;;;10.79;100.00
54600;BME280;40500;51.084;16.958;2023-05-24T05:24:31;100439.89;;;10.87;100.00
54600;BME280;40500;51.084;16.958;2023-05-24T05:27:02;100443.65;;;10.92;100.00
54600;BME280;40500;51.084;16.958;2023-05-24T05:29:32;100456.34;;;10.99;100.00
54600;BME280;40500;51.084;16.958;2023-05-24T05:32:03;100456.36;;;11.08;100.00
54600;BME280;40500;51.084;16.958;2023-05-24T05:34:33;100465.11;;;11.19;100.00
54600;BME280;40500;51.084;16.958;2023-05-24T05:37:04;100467.69;;;11.22;100.00
54600;BME280;40500;51.084;16.958;2023-05-24T05:39:35;100472.55;;;11.15;100.00
54600;BME280;40500;51.084;16.958;2023-05-24T05:42:07;100474.80;;;11.05;100.00
54600;BME280;40500;51.084;16.958;2023-05-24T05:44:38;100481.70;;;11.01;100.00
54600;BME280;40500;51.084;16.958;2023-05-24T05:47:08;100484.63;;;10.94;100.00
54600;BME280;40500;51.084;16.958;2023-05-24T05:49:38;100484.99;;;10.92;100.00
54600;BME280;40500;51.084;16.958;2023-05-24T05:52:09;100490.45;;;10.91;100.00
54600;BME280;40500;51.084;16.958;2023-05-24T05:54:39;100486.86;;;10.96;100.00
54600;BME280;40500;51.084;16.958;2023-05-24T05:57:10;100484.19;;;10.99;100.00
54600;BME280;40500;51.084;16.958;2023-05-24T05:59:41;100482.82;;;11.08;100.00
54600;BME280;40500;51.084;16.958;2023-05-24T06:02:11;100486.63;;;11.11;100.00
54600;BME280;40500;51.084;16.958;2023-05-24T06:04:42;100488.92;;;11.20;100.00
54600;BME280;40500;51.084;16.958;2023-05-24T06:07:12;100492.09;;;11.19;100.00
54600;BME280;40500;51.084;16.958;2023-05-24T06:09:43;100494.55;;;11.19;100.00
54600;BME280;40500;51.084;16.958;2023-05-24T06:12:13;100496.61;;;11.21;100.00
54600;BME280;40500;51.084;16.958;2023-05-24T06:14:44;100490.82;;;11.22;100.00
54600;BME280;40500;51.084;16.958;2023-05-24T06:17:16;100493.63;;;11.32;100.00
54600;BME280;40500;51.084;16.958;2023-05-24T06:19:47;100499.61;;;11.51;100.00
54600;BME280;40500;51.084;16.958;2023-05-24T06:22:17;100506.54;;;11.55;100.00
54600;BME280;40500;51.084;16.958;2023-05-24T06:24:49;100506.25;;;11.61;100.00
54600;BME280;40500;51.084;16.958;2023-05-24T06:27:20;100510.95;;;11.63;100.00
54600;BME280;40500;51.084;16.958;2023-05-24T06:29:51;100509.41;;;11.70;100.00
54600;BME280;40500;51.084;16.958;2023-05-24T06:32:21;100507.65;;;11.71;100.00
54600;BME280;40500;51.084;16.958;2023-05-24T06:34:52;100511.98;;;11.74;100.00
54600;BME280;40500;51.084;16.958;2023-05-24T06:37:22;100512.41;;;11.79;100.00
54600;BME280;40500;51.084;16.958;2023-05-24T06:39:53;100515.60;;;11.86;100.00
54600;BME280;40500;51.084;16.958;2023-05-24T06:42:24;100511.39;;;11.86;100.00
54600;BME280;40500;51.084;16.958;2023-05-24T06:44:54;100518.02;;;11.99;100.00
54600;BME280;40500;51.084;16.958;2023-05-24T06:47:24;100527.31;;;12.08;100.00
54600;BME280;40500;51.084;16.958;2023-05-24T06:49:55;100525.98;;;12.13;100.00
54600;BME280;40500;51.084;16.958;2023-05-24T06:52:26;100532.32;;;12.04;100.00
54600;BME280;40500;51.084;16.958;2023-05-24T06:54:57;100532.59;;;11.99;100.00
54600;BME280;40500;51.084;16.958;2023-05-24T06:57:27;100537.13;;;12.00;100.00
54600;BME280;40500;51.084;16.958;2023-05-24T06:59:58;100544.59;;;12.04;100.00
54600;BME280;40500;51.084;16.958;2023-05-24T07:02:28;100550.64;;;12.08;100.00
54600;BME280;40500;51.084;16.958;2023-05-24T07:04:59;100553.65;;;12.07;100.00
54600;BME280;40500;51.084;16.958;2023-05-24T07:07:30;100559.41;;;12.09;100.00
54600;BME280;40500;51.084;16.958;2023-05-24T07:10:01;100566.03;;;12.12;100.00
54600;BME280;40500;51.084;16.958;2023-05-24T07:12:32;100572.50;;;12.04;100.00
54600;BME280;40500;51.084;16.958;2023-05-24T07:15:03;100573.52;;;11.97;100.00
54600;BME280;40500;51.084;16.958;2023-05-24T07:17:33;100579.88;;;12.04;100.00
54600;BME280;40500;51.084;16.958;2023-05-24T07:20:05;100578.77;;;11.98;100.00
54600;BME280;40500;51.084;16.958;2023-05-24T07:22:38;100579.58;;;12.02;100.00
54600;BME280;40500;51.084;16.958;2023-05-24T07:25:10;100579.95;;;11.91;100.00
54600;BME280;40500;51.084;16.958;2023-05-24T07:27:40;100584.89;;;11.77;100.00
54600;BME280;40500;51.084;16.958;2023-05-24T07:30:12;100586.10;;;11.69;100.00
54600;BME280;40500;51.084;16.958;2023-05-24T07:33:00;100582.70;;;11.63;100.00
54600;BME280;40500;51.084;16.958;2023-05-24T07:35:31;100588.61;;;11.66;100.00
54600;BME280;40500;51.084;16.958;2023-05-24T07:38:01;100594.83;;;11.72;100.00
54600;BME280;40500;51.084;16.958;2023-05-24T07:40:32;100600.70;;;11.77;100.00
54600;BME280;40500;51.084;16.958;2023-05-24T07:43:06;100605.80;;;11.76;100.00
54600;BME280;40500;51.084;16.958;2023-05-24T07:45:36;100610.83;;;11.69;100.00
54600;BME280;40500;51.084;16.958;2023-05-24T07:48:06;100615.73;;;11.60;100.00
54600;BME280;40500;51.084;16.958;2023-05-24T07:50:37;100615.11;;;11.65;100.00
54600;BME280;40500;51.084;16.958;2023-05-24T07:53:07;100621.25;;;11.65;100.00
54600;BME280;40500;51.084;16.958;2023-05-24T07:55:38;100626.23;;;11.62;100.00
54600;BME280;40500;51.084;16.958;2023-05-24T07:58:09;100627.81;;;11.71;100.00
54600;BME280;40500;51.084;16.958;2023-05-24T08:00:40;100627.23;;;11.74;100.00
54600;BME280;40500;51.084;16.958;2023-05-24T08:03:10;100627.83;;;11.81;100.00
54600;BME280;40500;51.084;16.958;2023-05-24T08:05:43;100629.28;;;11.88;100.00
54600;BME280;40500;51.084;16.958;2023-05-24T08:08:14;100627.88;;;11.88;100.00
54600;BME280;40500;51.084;16.958;2023-05-24T08:10:44;100627.52;;;11.90;100.00
54600;BME280;40500;51.084;16.958;2023-05-24T08:13:14;100633.77;;;11.95;100.00
54600;BME280;40500;51.084;16.958;2023-05-24T08:15:45;100632.12;;;11.98;100.00
54600;BME280;40500;51.084;16.958;2023-05-24T08:18:16;100633.48;;;12.01;100.00
54600;BME280;40500;51.084;16.958;2023-05-24T08:20:46;100630.90;;;12.07;100.00
54600;BME280;40500;51.084;16.958;2023-05-24T08:23:17;100628.05;;;12.09;100.00
54600;BME280;40500;51.084;16.958;2023-05-24T08:25:47;100621.34;;;12.21;100.00
54600;BME280;40500;51.084;16.958;2023-05-24T08:28:19;100615.59;;;12.46;100.00
54600;BME280;40500;51.084;16.958;2023-05-24T08:30:50;100617.57;;;12.77;100.00
54600;BME280;40500;51.084;16.958;2023-05-24T08:33:20;100611.16;;;12.89;100.00
54600;BME280;40500;51.084;16.958;2023-05-24T08:35:51;100610.98;;;13.05;100.00
54600;BME280;40500;51.084;16.958;2023-05-24T08:38:21;100610.35;;;13.01;100.00
54600;BME280;40500;51.084;16.958;2023-05-24T08:40:52;100612.19;;;13.14;100.00
54600;BME280;40500;51.084;16.958;2023-05-24T08:43:23;100617.95;;;13.22;100.00
54600;BME280;40500;51.084;16.958;2023-05-24T08:45:56;100615.49;;;13.23;100.00
54600;BME280;40500;51.084;16.958;2023-05-24T08:48:28;100621.05;;;13.34;100.00
54600;BME280;40500;51.084;16.958;2023-05-24T08:50:59;100609.48;;;13.47;100.00
54600;BME280;40500;51.084;16.958;2023-05-24T08:53:30;100615.95;;;13.63;100.00
54600;BME280;40500;51.084;16.958;2023-05-24T08:56:01;100618.83;;;13.68;100.00
54600;BME280;40500;51.084;16.958;2023-05-24T08:58:32;100618.11;;;13.68;100.00
54600;BME280;40500;51.084;16.958;2023-05-24T09:01:03;100615.42;;;13.70;100.00
54600;BME280;40500;51.084;16.958;2023-05-24T09:03:36;100619.33;;;13.76;100.00
54600;BME280;40500;51.084;16.958;2023-05-24T09:06:09;100613.41;;;13.80;100.00
54600;BME280;40500;51.084;16.958;2023-05-24T09:08:40;100618.98;;;13.89;100.00
54600;BME280;40500;51.084;16.958;2023-05-24T09:11:12;100625.79;;;13.85;100.00
54600;BME280;40500;51.084;16.958;2023-05-24T09:13:44;100630.96;;;13.89;100.00
54600;BME280;40500;51.084;16.958;2023-05-24T09:16:15;100625.53;;;14.08;100.00
54600;BME280;40500;51.084;16.958;2023-05-24T09:18:46;100630.75;;;14.17;100.00
54600;BME280;40500;51.084;16.958;2023-05-24T09:21:16;100632.50;;;14.17;100.00
54600;BME280;40500;51.084;16.958;2023-05-24T09:23:47;100631.96;;;14.11;100.00
54600;BME280;40500;51.084;16.958;2023-05-24T09:26:19;100637.23;;;14.18;100.00
54600;BME280;40500;51.084;16.958;2023-05-24T09:28:50;100629.80;;;14.32;100.00
54600;BME280;40500;51.084;16.958;2023-05-24T09:31:32;100635.73;;;14.47;100.00
54600;BME280;40500;51.084;16.958;2023-05-24T09:34:03;100631.91;;;14.77;100.00
54600;BME280;40500;51.084;16.958;2023-05-24T09:36:42;100630.52;;;14.94;100.00
54600;BME280;40500;51.084;16.958;2023-05-24T09:39:17;100630.11;;;15.02;100.00
54600;BME280;40500;51.084;16.958;2023-05-24T09:41:52;100630.88;;;15.05;100.00
54600;BME280;40500;51.084;16.958;2023-05-24T09:44:26;100630.98;;;14.60;100.00
54600;BME280;40500;51.084;16.958;2023-05-24T09:47:02;100629.67;;;14.57;100.00
54600;BME280;40500;51.084;16.958;2023-05-24T09:49:36;100633.65;;;14.52;100.00
54600;BME280;40500;51.084;16.958;2023-05-24T09:52:07;100632.73;;;14.53;100.00
54600;BME280;40500;51.084;16.958;2023-05-24T09:54:38;100630.70;;;14.45;100.00
54600;BME280;40500;51.084;16.958;2023-05-24T09:57:10;100633.60;;;14.41;100.00
54600;BME280;40500;51.084;16.958;2023-05-24T09:59:41;100638.23;;;14.40;100.00
54600;BME280;40500;51.084;16.958;2023-05-24T10:02:12;100635.86;;;14.42;100.00
54600;BME280;40500;51.084;16.958;2023-05-24T10:04:43;100639.80;;;14.53;100.00
54600;BME280;40500;51.084;16.958;2023-05-24T10:07:15;100644.02;;;14.54;100.00
54600;BME280;40500;51.084;16.958;2023-05-24T10:09:47;100643.33;;;14.40;100.00
54600;BME280;40500;51.084;16.958;2023-05-24T10:12:18;100647.86;;;14.42;100.00
54600;BME280;40500;51.084;16.958;2023-05-24T10:14:52;100649.46;;;14.47;100.00
54600;BME280;40500;51.084;16.958;2023-05-24T10:17:25;100651.80;;;14.46;100.00
54600;BME280;40500;51.084;16.958;2023-05-24T10:19:56;100652.84;;;14.34;100.00
54600;BME280;40500;51.084;16.958;2023-05-24T10:22:28;100658.45;;;14.08;100.00
54600;BME280;40500;51.084;16.958;2023-05-24T10:25:01;100660.73;;;13.88;100.00
54600;BME280;40500;51.084;16.958;2023-05-24T10:27:35;100663.54;;;13.96;100.00
54600;BME280;40500;51.084;16.958;2023-05-24T10:30:13;100660.54;;;14.16;100.00
54600;BME280;40500;51.084;16.958;2023-05-24T10:32:45;100662.53;;;14.34;100.00
54600;BME280;40500;51.084;16.958;2023-05-24T10:35:17;100658.63;;;14.29;100.00
54600;BME280;40500;51.084;16.958;2023-05-24T10:37:49;100658.55;;;14.25;100.00
54600;BME280;40500;51.084;16.958;2023-05-24T10:40:22;100656.35;;;14.41;100.00
54600;BME280;40500;51.084;16.958;2023-05-24T10:42:54;100653.11;;;14.56;100.00
54600;BME280;40500;51.084;16.958;2023-05-24T10:45:37;100648.42;;;14.79;100.00
54600;BME280;40500;51.084;16.958;2023-05-24T10:48:33;100656.41;;;15.01;100.00
54600;BME280;40500;51.084;16.958;2023-05-24T10:51:30;100656.98;;;15.12;100.00
54600;BME280;40500;51.084;16.958;2023-05-24T10:56:51;100660.20;;;14.92;100.00
54600;BME280;40500;51.084;16.958;2023-05-24T10:59:29;100662.70;;;14.96;100.00
54600;BME280;40500;51.084;16.958;2023-05-24T11:02:05;100665.58;;;14.95;100.00
54600;BME280;40500;51.084;16.958;2023-05-24T11:04:39;100663.46;;;14.95;100.00
54600;BME280;40500;51.084;16.958;2023-05-24T11:07:12;100663.09;;;15.07;100.00
54600;BME280;40500;51.084;16.958;2023-05-24T11:09:44;100663.58;;;15.20;100.00
54600;BME280;40500;51.084;16.958;2023-05-24T11:12:20;100659.11;;;15.22;100.00
54600;BME280;40500;51.084;16.958;2023-05-24T11:14:52;100661.84;;;15.31;100.00
54600;BME280;40500;51.084;16.958;2023-05-24T11:17:24;100668.11;;;15.16;100.00
54600;BME280;40500;51.084;16.958;2023-05-24T11:19:55;100672.67;;;14.87;100.00
54600;BME280;40500;51.084;16.958;2023-05-24T11:22:25;100675.10;;;14.77;100.00
54600;BME280;40500;51.084;16.958;2023-05-24T11:24:56;100676.97;;;14.67;100.00
54600;BME280;40500;51.084;16.958;2023-05-24T11:27:32;100676.19;;;14.63;100.00
54600;BME280;40500;51.084;16.958;2023-05-24T11:30:05;100679.36;;;14.70;100.00
54600;BME280;40500;51.084;16.958;2023-05-24T11:32:36;100676.80;;;14.79;100.00
54600;BME280;40500;51.084;16.958;2023-05-24T11:35:10;100678.07;;;14.90;100.00
54600;BME280;40500;51.084;16.958;2023-05-24T11:37:41;100675.02;;;15.10;100.00
54600;BME280;40500;51.084;16.958;2023-05-24T11:40:15;100671.45;;;15.28;100.00
54600;BME280;40500;51.084;16.958;2023-05-24T11:42:47;100673.27;;;15.49;100.00
54600;BME280;40500;51.084;16.958;2023-05-24T11:45:19;100678.54;;;15.66;100.00
54600;BME280;40500;51.084;16.958;2023-05-24T11:47:50;100676.11;;;15.60;100.00
54600;BME280;40500;51.084;16.958;2023-05-24T11:50:25;100674.98;;;15.68;100.00
54600;BME280;40500;51.084;16.958;2023-05-24T11:53:16;100675.23;;;15.70;100.00
54600;BME280;40500;51.084;16.958;2023-05-24T11:55:47;100670.30;;;15.76;100.00
54600;BME280;40500;51.084;16.958;2023-05-24T11:58:23;100678.50;;;15.57;100.00
54600;BME280;40500;51.084;16.958;2023-05-24T12:00:54;100676.00;;;15.47;100.00
54600;BME280;40500;51.084;16.958;2023-05-24T12:03:24;100668.36;;;15.48;100.00
54600;BME280;40500;51.084;16.958;2023-05-24T12:05:57;100671.41;;;15.52;100.00
54600;BME280;40500;51.084;16.958;2023-05-24T12:08:27;100673.58;;;15.39;100.00
54600;BME280;40500;51.084;16.958;2023-05-24T12:10:59;100672.64;;;15.35;100.00
54600;BME280;40500;51.084;16.958;2023-05-24T12:13:31;100672.31;;;15.35;100.00
54600;BME280;40500;51.084;16.958;2023-05-24T12:16:03;100675.95;;;15.42;100.00
54600;BME280;40500;51.084;16.958;2023-05-24T12:18:33;100675.15;;;15.56;100.00
54600;BME280;40500;51.084;16.958;2023-05-24T12:21:11;100673.23;;;15.67;100.00
54600;BME280;40500;51.084;16.958;2023-05-24T12:23:42;100672.61;;;15.81;100.00
54600;BME280;40500;51.084;16.958;2023-05-24T12:26:13;100668.88;;;15.93;100.00
54600;BME280;40500;51.084;16.958;2023-05-24T12:28:48;100668.40;;;15.91;100.00
54600;BME280;40500;51.084;16.958;2023-05-24T12:31:22;100669.55;;;15.93;100.00
54600;BME280;40500;51.084;16.958;2023-05-24T12:33:52;100668.98;;;15.84;100.00
54600;BME280;40500;51.084;16.958;2023-05-24T12:36:23;100667.70;;;15.69;100.00
54600;BME280;40500;51.084;16.958;2023-05-24T12:38:54;100666.92;;;15.76;100.00
54600;BME280;40500;51.084;16.958;2023-05-24T12:41:25;100663.98;;;15.75;100.00
54600;BME280;40500;51.084;16.958;2023-05-24T12:43:57;100663.80;;;15.69;100.00
54600;BME280;40500;51.084;16.958;2023-05-24T12:46:28;100666.21;;;15.60;100.00
54600;BME280;40500;51.084;16.958;2023-05-24T12:48:59;100668.48;;;15.60;100.00
54600;BME280;40500;51.084;16.958;2023-05-24T12:51:30;100672.15;;;15.67;100.00
54600;BME280;40500;51.084;16.958;2023-05-24T12:54:01;100668.48;;;15.77;100.00
54600;BME280;40500;51.084;16.958;2023-05-24T12:56:32;100670.89;;;15.91;100.00
54600;BME280;40500;51.084;16.958;2023-05-24T12:59:03;100673.60;;;15.94;100.00